Arock, OR

4:46 PM MDT on August 20, 2014 (GMT -0600)
Boise Air Term | Change Station
CLOSE
Current Station
Airport
Location: Boise,
Elevation: 2867 ft
Nearby Weather Stations

Elev 2867 ft 43.57 °N, 116.24 °W | Updated 53 minutes ago

Clear
Clear
83 °F
Feels Like 83 °F
N
7
Wind Variable Wind from NNW

Today
High -- | Low -- °F
--% Chance of Precip.
Yesterday
High -- | Low -- °F
Precip. -- in
7:01 AM 8:44 PM
Waning Crescent, 18% visible
Pressure 29.74 in
Visibility 10.0 miles
Clouds Clear
Dew Point 46 °F
Humidity 27%
Rainfall 0.00 in
Snow Depth Not available.
UV 7 out of 12
Pollen 7.80 out of 12
Air Quality Not available.
Flu Activity Not available.
METAR KBOI 202153Z 34006KT 10SM CLR 28/08 A2983 RMK AO2 SLP070 T02830078

More Conditions Fewer Conditions

Pressure 29.74 in
Visibility 10.0 miles
Clouds Clear
Dew Point 46 °F
Humidity 27%
Rainfall 0.00 in
Snow Depth Not available.
UV 7 out of 12
Pollen 7.80 out of 12
Air Quality Not available.
Flu Activity Not available.
METAR KBOI 202153Z 34006KT 10SM CLR 28/08 A2983 RMK AO2 SLP070 T02830078

More Conditions Fewer Conditions

10-Day Weather Forecast

Almanac

Astronomy

Aug. 20, 2014 Rise Set
Actual Time 7:01 AM MDT 8:44 PM MDT
Civil Twilight 6:31 AM MDT 9:14 PM MDT
Nautical Twilight 5:54 AM MDT 9:50 PM MDT
Astronomical Twilight 5:15 AM MDT 10:29 PM MDT
Moon 2:42 AM MDT 5:35 PM MDT
Length of Visible Light 14h 42m
Length of Day
13h 42m
Tomorrow will be 2m 41s shorter.
Waning Crescent, 18% of the Moon is Illuminated
Today
Waning Crescent
Aug 25
New
Sep 2
First Quarter
Sep 8
Full
Sep 15
Last Quarter

Today's Extremes

State Highs State Lows

Community

WunderPhotos

Upload Photos

1,745,791 photos uploaded!

Nearby

Snow Depth

Station Depth Elevation
Fish Creek 0 in 7900 ft
Wolf Creek 1 in 5700 ft
Mt. Howard 0 in 7910 ft
County Line 0 in 4800 ft
Lucky Strike 0 in 5050 ft

Earthquake Activity

City Distance Mag. Time & Date
No recent earthquake activity has been reported nearby.
Minimum magnitude displayed is 2.5.

Coastal Water Temperatures

Place Temperature
No Stations Reporting

Nearby Weather Stations